createdAt,value
2018-11-04T00:00:33.750Z,0.00
2018-11-04T00:01:33.750Z,0.00
2018-11-04T00:02:33.717Z,0.00
2018-11-04T00:03:33.704Z,0.00
2018-11-04T00:04:33.735Z,0.00
2018-11-04T00:05:33.687Z,0.00
2018-11-04T00:06:33.678Z,0.00
2018-11-04T00:07:33.670Z,0.00
2018-11-04T00:08:33.656Z,0.00
2018-11-04T00:09:33.655Z,0.00
2018-11-04T00:10:33.676Z,0.00
2018-11-04T00:11:33.619Z,0.00
2018-11-04T00:12:33.609Z,0.00
2018-11-04T00:13:33.618Z,0.00
2018-11-04T00:14:33.591Z,0.00
2018-11-04T00:15:33.580Z,0.00
2018-11-04T00:16:33.615Z,0.00
2018-11-04T00:17:33.557Z,0.00
2018-11-04T00:18:33.545Z,0.00
2018-11-04T00:19:33.551Z,0.00
2018-11-04T00:20:33.534Z,0.00
2018-11-04T00:21:33.519Z,0.00
2018-11-04T00:22:33.550Z,0.00
2018-11-04T00:23:33.496Z,0.00
2018-11-04T00:24:33.491Z,0.00
2018-11-04T00:25:33.483Z,0.00
2018-11-04T00:26:33.475Z,0.00
2018-11-04T00:27:33.454Z,0.00
2018-11-04T00:28:33.489Z,0.00
2018-11-04T00:29:33.475Z,0.00
2018-11-04T00:30:33.422Z,0.00
2018-11-04T00:31:33.412Z,0.00
2018-11-04T00:32:33.421Z,0.00
2018-11-04T00:33:33.389Z,0.00
2018-11-04T00:34:33.441Z,0.00
2018-11-04T00:35:33.365Z,0.00
2018-11-04T00:36:33.359Z,0.00
2018-11-04T00:37:33.344Z,0.00
2018-11-04T00:38:33.344Z,0.00
2018-11-04T00:39:33.331Z,0.00
2018-11-04T00:40:33.350Z,0.00
2018-11-04T00:41:33.298Z,0.00
2018-11-04T00:42:33.290Z,0.00
2018-11-04T00:43:33.276Z,0.00
2018-11-04T00:44:33.278Z,0.00
2018-11-04T00:45:33.366Z,0.00
2018-11-04T00:46:33.307Z,0.00
2018-11-04T00:47:33.239Z,0.00
2018-11-04T00:48:33.245Z,0.00
2018-11-04T00:49:33.220Z,0.00
2018-11-04T00:50:33.225Z,0.00
2018-11-04T00:51:33.191Z,0.00
2018-11-04T00:52:33.376Z,0.00
2018-11-04T00:53:33.184Z,0.00
2018-11-04T00:54:33.166Z,0.00
2018-11-04T00:55:33.153Z,0.00
2018-11-04T00:56:33.163Z,0.00
2018-11-04T00:57:33.129Z,0.00
2018-11-04T00:58:33.149Z,0.00
2018-11-04T00:59:33.112Z,0.00
2018-11-04T01:00:33.095Z,0.00
2018-11-04T01:01:33.144Z,0.00
2018-11-04T01:02:33.093Z,0.00
2018-11-04T01:03:33.070Z,0.00
2018-11-04T01:04:33.107Z,0.00
2018-11-04T01:05:33.044Z,0.00
2018-11-04T01:06:33.035Z,0.00
2018-11-04T01:07:33.037Z,0.00
2018-11-04T01:08:33.027Z,0.00
2018-11-04T01:09:33.027Z,0.00
2018-11-04T01:10:33.028Z,0.00
2018-11-04T01:11:32.976Z,0.00
2018-11-04T01:12:32.969Z,0.00
2018-11-04T01:13:32.955Z,0.00
2018-11-04T01:14:32.971Z,0.00
2018-11-04T01:15:32.935Z,0.00
2018-11-04T01:16:32.974Z,0.00
2018-11-04T01:17:32.923Z,0.00
2018-11-04T01:18:32.908Z,0.00
2018-11-04T01:19:32.898Z,0.00
2018-11-04T01:20:32.896Z,0.00
2018-11-04T01:21:32.884Z,0.00
2018-11-04T01:22:32.897Z,0.00
2018-11-04T01:23:32.848Z,0.00
2018-11-04T01:24:32.908Z,0.00
2018-11-04T01:25:32.827Z,0.00
2018-11-04T01:26:32.832Z,0.00
2018-11-04T01:27:32.811Z,0.00
2018-11-04T01:28:32.848Z,0.00
2018-11-04T01:29:32.801Z,0.00
2018-11-04T01:30:32.783Z,0.00
2018-11-04T01:31:32.762Z,0.00
2018-11-04T01:32:32.756Z,0.00
2018-11-04T01:33:32.756Z,0.00
2018-11-04T01:34:32.773Z,0.00
2018-11-04T01:35:32.729Z,0.00
2018-11-04T01:36:32.754Z,0.00
2018-11-04T01:37:32.710Z,0.00
2018-11-04T01:38:32.694Z,0.00
2018-11-04T01:39:32.679Z,0.00
2018-11-04T01:40:32.723Z,0.00
2018-11-04T01:41:32.686Z,0.00
2018-11-04T01:42:32.646Z,0.00
2018-11-04T01:43:32.634Z,0.00
2018-11-04T01:44:32.625Z,0.00
2018-11-04T01:45:32.620Z,0.00
2018-11-04T01:46:32.636Z,0.00
2018-11-04T01:47:32.614Z,0.00
2018-11-04T01:48:32.582Z,0.00
2018-11-04T01:49:32.574Z,0.00
2018-11-04T01:50:32.561Z,0.00
2018-11-04T01:51:32.562Z,0.00
2018-11-04T01:52:32.597Z,0.00
2018-11-04T01:53:32.531Z,0.00
2018-11-04T01:54:32.551Z,0.00
2018-11-04T01:55:32.508Z,0.00
2018-11-04T01:56:32.503Z,0.00
2018-11-04T01:57:32.488Z,0.00
2018-11-04T01:58:32.519Z,0.00
2018-11-04T01:59:32.477Z,0.00
2018-11-04T02:00:32.474Z,0.00
2018-11-04T02:01:32.447Z,0.00
2018-11-04T02:02:32.436Z,0.00
2018-11-04T02:03:32.430Z,0.00
2018-11-04T02:04:32.466Z,0.00
2018-11-04T02:05:32.403Z,0.00
2018-11-04T02:06:32.408Z,0.00
2018-11-04T02:07:32.380Z,0.00
2018-11-04T02:08:32.372Z,0.00
2018-11-04T02:09:32.363Z,0.00
2018-11-04T02:10:32.537Z,0.00
2018-11-04T02:11:32.342Z,0.00
2018-11-04T02:12:32.351Z,0.00
2018-11-04T02:13:32.324Z,0.00
2018-11-04T02:14:32.304Z,0.00
2018-11-04T02:15:32.300Z,0.00
2018-11-04T02:16:32.329Z,0.00
2018-11-04T02:17:32.273Z,0.00
2018-11-04T02:18:32.273Z,0.00
2018-11-04T02:19:32.257Z,0.00
2018-11-04T02:20:32.240Z,0.00
2018-11-04T02:21:32.232Z,0.00
2018-11-04T02:22:32.254Z,0.00
2018-11-04T02:23:32.215Z,0.00
2018-11-04T02:24:32.219Z,0.00
2018-11-04T02:25:32.194Z,0.00
2018-11-04T02:26:32.180Z,0.00
2018-11-04T02:27:32.166Z,0.00
2018-11-04T02:28:32.205Z,0.00
2018-11-04T02:29:32.161Z,0.00
2018-11-04T02:30:32.133Z,0.00
2018-11-04T02:31:32.125Z,0.00
2018-11-04T02:32:32.116Z,0.00
2018-11-04T02:33:32.100Z,0.00
2018-11-04T02:34:32.271Z,0.00
2018-11-04T02:35:32.097Z,0.00
2018-11-04T02:36:32.089Z,0.00
2018-11-04T02:37:32.058Z,0.00
2018-11-04T02:38:32.052Z,0.00
2018-11-04T02:39:32.039Z,0.00
2018-11-04T02:40:32.066Z,0.00
2018-11-04T02:41:32.036Z,0.00
2018-11-04T02:42:32.013Z,0.00
2018-11-04T02:43:31.996Z,0.00
2018-11-04T02:44:31.983Z,0.00
2018-11-04T02:45:31.973Z,0.00
2018-11-04T02:46:32.005Z,0.00
2018-11-04T02:47:31.968Z,0.00
2018-11-04T02:48:31.966Z,0.00
2018-11-04T02:49:31.939Z,0.00
2018-11-04T02:50:31.920Z,0.00
2018-11-04T02:51:31.909Z,0.00
2018-11-04T02:52:31.931Z,0.00
2018-11-04T02:53:31.891Z,0.00
2018-11-04T02:54:31.876Z,0.00
2018-11-04T02:55:31.890Z,0.00
2018-11-04T02:56:31.853Z,0.00
2018-11-04T02:57:31.841Z,0.00
2018-11-04T02:58:31.873Z,0.00
2018-11-04T02:59:31.824Z,0.00
2018-11-04T03:00:31.818Z,0.00
2018-11-04T03:01:31.825Z,0.00
2018-11-04T03:02:31.790Z,0.00
2018-11-04T03:03:31.783Z,0.00
2018-11-04T03:04:31.815Z,0.00
2018-11-04T03:05:31.758Z,0.00
2018-11-04T03:06:31.752Z,0.00
2018-11-04T03:07:31.766Z,0.00
2018-11-04T03:08:31.723Z,0.00
2018-11-04T03:09:31.712Z,0.00
2018-11-04T03:10:31.753Z,0.00
2018-11-04T03:11:31.693Z,0.00
2018-11-04T03:12:31.682Z,0.00
2018-11-04T03:13:31.697Z,0.00
2018-11-04T03:14:31.661Z,0.00
2018-11-04T03:15:31.652Z,0.00
2018-11-04T03:16:31.671Z,0.00
2018-11-04T03:17:31.628Z,0.00
2018-11-04T03:18:31.629Z,0.00
2018-11-04T03:19:31.632Z,0.00
2018-11-04T03:20:31.594Z,0.00
2018-11-04T03:21:31.587Z,0.00
2018-11-04T03:22:31.638Z,0.00
2018-11-04T03:23:31.561Z,0.00
2018-11-04T03:24:31.576Z,0.00
2018-11-04T03:25:31.560Z,0.00
2018-11-04T03:26:31.532Z,0.00
2018-11-04T03:27:31.522Z,0.00
2018-11-04T03:28:31.703Z,0.00
2018-11-04T03:29:31.502Z,0.00
2018-11-04T03:30:31.491Z,0.00
2018-11-04T03:31:31.495Z,0.00
2018-11-04T03:32:31.468Z,0.00
2018-11-04T03:33:31.452Z,0.00
2018-11-04T03:34:31.482Z,0.00
2018-11-04T03:35:31.440Z,0.00
2018-11-04T03:36:31.424Z,0.00
2018-11-04T03:37:31.432Z,0.00
2018-11-04T03:38:31.402Z,0.00
2018-11-04T03:39:31.387Z,0.00
2018-11-04T03:40:31.414Z,0.00
2018-11-04T03:41:31.439Z,0.00
2018-11-04T03:42:31.355Z,0.00
2018-11-04T03:43:31.384Z,0.00
2018-11-04T03:44:31.331Z,0.00
2018-11-04T03:45:31.322Z,0.00
2018-11-04T03:46:31.589Z,0.00
2018-11-04T03:47:31.300Z,0.00
2018-11-04T03:48:31.287Z,0.00
2018-11-04T03:49:31.293Z,0.00
2018-11-04T03:50:31.265Z,0.00
2018-11-04T03:51:31.257Z,0.00
2018-11-04T03:52:31.272Z,0.00
2018-11-04T03:53:31.234Z,0.00
2018-11-04T03:54:31.223Z,0.00
2018-11-04T03:55:31.230Z,0.00
2018-11-04T03:56:31.200Z,0.00
2018-11-04T03:57:31.202Z,0.00
2018-11-04T03:58:31.232Z,0.00
2018-11-04T03:59:31.167Z,0.00
2018-11-04T04:00:31.172Z,0.00
2018-11-04T04:01:31.174Z,0.00
2018-11-04T04:02:31.139Z,0.00
2018-11-04T04:03:31.124Z,0.00
2018-11-04T04:04:31.142Z,0.00
2018-11-04T04:05:31.103Z,0.00
2018-11-04T04:06:31.090Z,0.00
2018-11-04T04:07:31.097Z,0.00
2018-11-04T04:08:31.074Z,0.00
2018-11-04T04:09:31.060Z,0.00
2018-11-04T04:10:31.093Z,0.00
2018-11-04T04:11:31.050Z,0.00
2018-11-04T04:12:31.030Z,0.00
2018-11-04T04:13:31.036Z,0.00
2018-11-04T04:14:31.004Z,0.00
2018-11-04T04:15:30.995Z,0.00
2018-11-04T04:16:31.016Z,0.00
2018-11-04T04:17:30.974Z,0.00
2018-11-04T04:18:30.961Z,0.00
2018-11-04T04:19:30.990Z,0.00
2018-11-04T04:20:30.941Z,0.00
2018-11-04T04:21:30.930Z,0.00
2018-11-04T04:22:30.956Z,0.00
2018-11-04T04:23:30.907Z,0.00
2018-11-04T04:24:30.892Z,0.00
2018-11-04T04:25:30.898Z,0.00
2018-11-04T04:26:30.878Z,0.00
2018-11-04T04:27:30.867Z,0.00
2018-11-04T04:28:30.891Z,0.00
2018-11-04T04:29:30.839Z,0.00
2018-11-04T04:30:30.826Z,0.00
2018-11-04T04:31:30.836Z,0.00
2018-11-04T04:32:30.807Z,0.00
2018-11-04T04:33:30.797Z,0.00
2018-11-04T04:34:30.835Z,0.00
2018-11-04T04:35:30.772Z,0.00
2018-11-04T04:36:30.761Z,0.00
2018-11-04T04:37:30.760Z,0.00
2018-11-04T04:38:30.743Z,0.00
2018-11-04T04:39:30.730Z,0.00
2018-11-04T04:40:30.760Z,0.00
2018-11-04T04:41:30.708Z,0.00
2018-11-04T04:42:30.703Z,0.00
2018-11-04T04:43:30.716Z,0.00
2018-11-04T04:44:30.676Z,0.00
2018-11-04T04:45:30.666Z,0.00
2018-11-04T04:46:30.694Z,0.00
2018-11-04T04:47:30.640Z,0.00
2018-11-04T04:48:30.633Z,0.00
2018-11-04T04:49:30.636Z,0.00
2018-11-04T04:50:30.625Z,0.00
2018-11-04T04:51:30.599Z,0.00
2018-11-04T04:52:30.639Z,0.00
2018-11-04T04:53:30.582Z,0.00
2018-11-04T04:54:30.573Z,0.00
2018-11-04T04:55:30.572Z,0.00
2018-11-04T04:56:30.546Z,0.00
2018-11-04T04:57:30.538Z,0.00
2018-11-04T04:58:30.551Z,0.00
2018-11-04T04:59:30.513Z,0.00
2018-11-04T05:00:30.503Z,0.00
2018-11-04T05:01:30.512Z,0.00
2018-11-04T05:02:30.480Z,0.00
2018-11-04T05:03:30.466Z,0.00
2018-11-04T05:04:30.515Z,0.00
2018-11-04T05:05:30.486Z,0.00
2018-11-04T05:06:30.434Z,0.00
2018-11-04T05:07:30.447Z,0.00
2018-11-04T05:08:30.411Z,0.00
2018-11-04T05:09:30.407Z,0.00
2018-11-04T05:10:30.537Z,0.00
2018-11-04T05:11:30.378Z,0.00
2018-11-04T05:12:30.370Z,0.00
2018-11-04T05:13:30.377Z,0.00
2018-11-04T05:14:30.345Z,0.00
2018-11-04T05:15:30.338Z,0.00
2018-11-04T05:16:30.369Z,0.00
2018-11-04T05:17:30.319Z,0.00
2018-11-04T05:18:30.311Z,0.00
2018-11-04T05:19:30.304Z,0.00
2018-11-04T05:20:30.284Z,0.00
2018-11-04T05:21:30.277Z,0.00
2018-11-04T05:22:30.312Z,0.00
2018-11-04T05:23:30.250Z,0.00
2018-11-04T05:24:30.238Z,0.00
2018-11-04T05:25:30.242Z,0.00
2018-11-04T05:26:30.219Z,0.00
2018-11-04T05:27:30.271Z,0.00
2018-11-04T05:28:30.250Z,0.00
2018-11-04T05:29:30.186Z,0.00
2018-11-04T05:30:30.172Z,0.00
2018-11-04T05:31:30.203Z,0.00
2018-11-04T05:32:30.157Z,0.00
2018-11-04T05:33:30.144Z,0.00
2018-11-04T05:34:30.176Z,0.00
2018-11-04T05:35:30.120Z,0.00
2018-11-04T05:36:30.119Z,0.00
2018-11-04T05:37:30.137Z,0.00
2018-11-04T05:38:30.143Z,0.00
2018-11-04T05:39:30.076Z,0.00
2018-11-04T05:40:30.123Z,0.00
2018-11-04T05:41:30.057Z,0.00
2018-11-04T05:42:30.043Z,0.00
2018-11-04T05:43:30.052Z,0.00
2018-11-04T05:44:30.022Z,0.00
2018-11-04T05:45:30.018Z,0.00
2018-11-04T05:46:30.038Z,0.00
2018-11-04T05:47:29.992Z,0.00
2018-11-04T05:48:29.979Z,0.00
2018-11-04T05:49:29.991Z,0.00
2018-11-04T05:50:29.959Z,0.00
2018-11-04T05:51:29.957Z,0.00
2018-11-04T05:52:29.963Z,0.00
2018-11-04T05:53:29.932Z,0.00
2018-11-04T05:54:29.915Z,0.00
2018-11-04T05:55:29.941Z,0.00
2018-11-04T05:56:29.897Z,0.00
2018-11-04T05:57:29.892Z,0.00
2018-11-04T05:58:29.942Z,0.00
2018-11-04T05:59:29.863Z,4.00
2018-11-04T06:00:29.850Z,4.00
2018-11-04T06:01:29.840Z,4.00
2018-11-04T06:02:29.833Z,4.00
2018-11-04T06:03:29.843Z,4.00
2018-11-04T06:04:29.857Z,8.00
2018-11-04T06:05:29.798Z,8.00
2018-11-04T06:06:29.791Z,8.00
2018-11-04T06:07:29.776Z,12.00
2018-11-04T06:08:29.787Z,16.00
2018-11-04T06:09:29.769Z,16.00
2018-11-04T06:10:29.773Z,20.00
2018-11-04T06:11:29.736Z,20.00
2018-11-04T06:12:29.720Z,24.00
2018-11-04T06:13:29.710Z,28.00
2018-11-04T06:14:29.696Z,32.00
2018-11-04T06:15:29.687Z,40.00
2018-11-04T06:16:29.747Z,48.00
2018-11-04T06:17:29.672Z,52.00
2018-11-04T06:18:29.711Z,56.00
2018-11-04T06:19:29.727Z,64.00
2018-11-04T06:20:29.651Z,72.00
2018-11-04T06:21:29.627Z,80.00
2018-11-04T06:22:29.668Z,88.00
2018-11-04T06:23:29.602Z,96.00
2018-11-04T06:24:29.590Z,112.00
2018-11-04T06:25:29.580Z,120.00
2018-11-04T06:26:29.578Z,136.00
2018-11-04T06:27:29.564Z,152.00
2018-11-04T06:28:29.617Z,176.00
2018-11-04T06:29:29.535Z,196.00
2018-11-04T06:30:29.523Z,216.00
2018-11-04T06:31:29.515Z,240.00
2018-11-04T06:32:29.518Z,264.00
2018-11-04T06:33:29.495Z,292.00
2018-11-04T06:34:29.568Z,324.00
2018-11-04T06:35:29.479Z,360.00
2018-11-04T06:36:29.462Z,392.00
2018-11-04T06:37:29.451Z,428.00
2018-11-04T06:38:29.441Z,460.00
2018-11-04T06:39:29.431Z,496.00
2018-11-04T06:40:29.459Z,536.00
2018-11-04T06:41:29.442Z,568.00
2018-11-04T06:42:29.399Z,608.00
2018-11-04T06:43:29.391Z,648.00
2018-11-04T06:44:29.380Z,684.00
2018-11-04T06:45:29.362Z,720.00
2018-11-04T06:46:29.403Z,752.00
2018-11-04T06:47:29.384Z,788.00
2018-11-04T06:48:29.336Z,824.00
2018-11-04T06:49:29.334Z,880.00
2018-11-04T06:50:29.307Z,928.00
2018-11-04T06:51:29.302Z,972.00
2018-11-04T06:52:29.353Z,1016.00
2018-11-04T06:53:29.287Z,1060.00
2018-11-04T06:54:29.271Z,1084.00
2018-11-04T06:55:29.255Z,1104.00
2018-11-04T06:56:29.244Z,1120.00
2018-11-04T06:57:29.232Z,1144.00
2018-11-04T06:58:29.263Z,1156.00
2018-11-04T06:59:29.238Z,1184.00
2018-11-04T07:00:29.200Z,1216.00
2018-11-04T07:01:29.189Z,1252.00
2018-11-04T07:02:29.178Z,1276.00
2018-11-04T07:03:29.172Z,1292.00
2018-11-04T07:04:29.203Z,1304.00
2018-11-04T07:05:29.178Z,1316.00
2018-11-04T07:06:29.136Z,1344.00
2018-11-04T07:07:29.132Z,1388.00
2018-11-04T07:08:29.116Z,1452.00
2018-11-04T07:09:29.123Z,1512.00
2018-11-04T07:10:29.137Z,1552.00
2018-11-04T07:11:29.078Z,1588.00
2018-11-04T07:12:29.092Z,1680.00
2018-11-04T07:13:29.068Z,1784.00
2018-11-04T07:14:29.046Z,1868.00
2018-11-04T07:15:29.035Z,1900.00
2018-11-04T07:16:29.073Z,1924.00
2018-11-04T07:17:29.015Z,1960.00
2018-11-04T07:18:29.038Z,2020.00
2018-11-04T07:19:29.004Z,2064.00
2018-11-04T07:20:28.982Z,2100.00
2018-11-04T07:21:28.979Z,2164.00
2018-11-04T07:22:29.010Z,2252.00
2018-11-04T07:23:28.949Z,2340.00
2018-11-04T07:24:28.944Z,2404.00
2018-11-04T07:25:28.936Z,2424.00
2018-11-04T07:26:28.941Z,2456.00
2018-11-04T07:27:28.912Z,2520.00
2018-11-04T07:28:31.610Z,2584.00
2018-11-04T07:29:29.628Z,2604.00
2018-11-04T07:30:29.125Z,2604.00
2018-11-04T07:31:30.493Z,2648.00
2018-11-04T07:32:28.863Z,2744.00
2018-11-04T07:33:28.849Z,2824.00
2018-11-04T07:34:28.884Z,2892.00
2018-11-04T07:35:28.819Z,2952.00
2018-11-04T07:36:28.817Z,2972.00
2018-11-04T07:37:28.809Z,2996.00
2018-11-04T07:38:28.794Z,3060.00
2018-11-04T07:39:28.825Z,3124.00
2018-11-04T07:40:28.805Z,3152.00
2018-11-04T07:41:28.753Z,3204.00
2018-11-04T07:42:28.745Z,3276.00
2018-11-04T07:43:28.796Z,3352.00
2018-11-04T07:44:28.828Z,3412.00
2018-11-04T07:45:28.712Z,3408.00
2018-11-04T07:46:28.740Z,3404.00
2018-11-04T07:47:28.690Z,3440.00
2018-11-04T07:48:28.682Z,3508.00
2018-11-04T07:49:28.672Z,3648.00
2018-11-04T07:50:28.664Z,3696.00
2018-11-04T07:51:28.705Z,3696.00
2018-11-04T07:52:28.688Z,3760.00
2018-11-04T07:53:28.624Z,3884.00
2018-11-04T07:54:28.617Z,3972.00
2018-11-04T07:55:28.620Z,3992.00
2018-11-04T07:56:28.600Z,4052.00
2018-11-04T07:57:28.663Z,4100.00
2018-11-04T07:58:28.614Z,4148.00
2018-11-04T07:59:28.559Z,4184.00
2018-11-04T08:00:28.548Z,4248.00
2018-11-04T08:01:28.540Z,4308.00
2018-11-04T08:02:28.575Z,4424.00
2018-11-04T08:03:28.552Z,4532.00
2018-11-04T08:04:28.548Z,4536.00
2018-11-04T08:05:28.494Z,4536.00
2018-11-04T08:06:28.490Z,4532.00
2018-11-04T08:07:28.784Z,4492.00
2018-11-04T08:08:28.615Z,4484.00
2018-11-04T08:09:28.534Z,4504.00
2018-11-04T08:10:28.489Z,4572.00
2018-11-04T08:11:28.554Z,4704.00
2018-11-04T08:12:28.455Z,4824.00
2018-11-04T08:13:28.424Z,4952.00
2018-11-04T08:14:28.468Z,5048.00
2018-11-04T08:15:28.388Z,5188.00
2018-11-04T08:16:28.575Z,5204.00
2018-11-04T08:17:28.385Z,5260.00
2018-11-04T08:18:28.385Z,5212.00
2018-11-04T08:19:28.358Z,5280.00
2018-11-04T08:20:28.333Z,5324.00
2018-11-04T08:21:28.468Z,5384.00
2018-11-04T08:22:28.340Z,5448.00
2018-11-04T08:23:28.309Z,5512.00
2018-11-04T08:24:28.284Z,5636.00
2018-11-04T08:25:28.287Z,5764.00
2018-11-04T08:26:28.267Z,5868.00
2018-11-04T08:27:28.251Z,5968.00
2018-11-04T08:28:28.302Z,6096.00
2018-11-04T08:29:28.232Z,6252.00
2018-11-04T08:30:28.236Z,6424.00
2018-11-04T08:31:28.208Z,6504.00
2018-11-04T08:32:28.199Z,6512.00
2018-11-04T08:33:28.198Z,6380.00
2018-11-04T08:34:28.256Z,6332.00
2018-11-04T08:35:28.175Z,6316.00
2018-11-04T08:36:28.166Z,6188.00
2018-11-04T08:37:28.158Z,6124.00
2018-11-04T08:38:28.154Z,6080.00
2018-11-04T08:39:28.153Z,6040.00
2018-11-04T08:40:28.283Z,5940.00
2018-11-04T08:41:28.117Z,5716.00
2018-11-04T08:42:28.088Z,5576.00
2018-11-04T08:43:28.084Z,5640.00
2018-11-04T08:44:28.074Z,5800.00
2018-11-04T08:45:28.060Z,5888.00
2018-11-04T08:46:28.094Z,5960.00
2018-11-04T08:47:28.044Z,6028.00
2018-11-04T08:48:28.018Z,6216.00
2018-11-04T08:49:28.034Z,6480.00
2018-11-04T08:50:28.000Z,6700.00
2018-11-04T08:51:28.031Z,6808.00
2018-11-04T08:52:28.073Z,6848.00
2018-11-04T08:53:27.971Z,6940.00
2018-11-04T08:54:27.954Z,7160.00
2018-11-04T08:55:27.960Z,7320.00
2018-11-04T08:56:27.934Z,7340.00
2018-11-04T08:57:27.924Z,7312.00
2018-11-04T08:58:27.953Z,7360.00
2018-11-04T08:59:27.899Z,7320.00
2018-11-04T09:00:27.939Z,7256.00
2018-11-04T09:01:27.877Z,7340.00
2018-11-04T09:02:27.866Z,7456.00
2018-11-04T09:03:27.856Z,7576.00
2018-11-04T09:04:27.915Z,7624.00
2018-11-04T09:05:27.837Z,7568.00
2018-11-04T09:06:27.901Z,7536.00
2018-11-04T09:07:27.833Z,7584.00
2018-11-04T09:08:27.802Z,7700.00
2018-11-04T09:09:27.810Z,7716.00
2018-11-04T09:10:27.860Z,7764.00
2018-11-04T09:11:27.773Z,7764.00
2018-11-04T09:12:27.768Z,7904.00
2018-11-04T09:13:27.757Z,8108.00
2018-11-04T09:14:27.852Z,8192.00
2018-11-04T09:15:27.724Z,8036.00
2018-11-04T09:16:27.769Z,7976.00
2018-11-04T09:17:27.728Z,7952.00
2018-11-04T09:18:27.763Z,7852.00
2018-11-04T09:19:27.680Z,7772.00
2018-11-04T09:20:27.677Z,7772.00
2018-11-04T09:21:27.669Z,7832.00
2018-11-04T09:22:27.723Z,7964.00
2018-11-04T09:23:27.662Z,8164.00
2018-11-04T09:24:27.646Z,8324.00
2018-11-04T09:25:27.621Z,8408.00
2018-11-04T09:26:27.622Z,8416.00
2018-11-04T09:27:27.611Z,8356.00
2018-11-04T09:28:27.618Z,8220.00
2018-11-04T09:29:27.576Z,8088.00
2018-11-04T09:30:27.566Z,8056.00
2018-11-04T09:31:27.562Z,8088.00
2018-11-04T09:32:27.571Z,8056.00
2018-11-04T09:33:27.538Z,8064.00
2018-11-04T09:34:27.589Z,8176.00
2018-11-04T09:35:27.675Z,8432.00
2018-11-04T09:36:27.598Z,8708.00
2018-11-04T09:37:27.508Z,8848.00
2018-11-04T09:38:27.495Z,8956.00
2018-11-04T09:39:27.482Z,9020.00
2018-11-04T09:40:27.517Z,9008.00
2018-11-04T09:41:27.445Z,8948.00
2018-11-04T09:42:27.542Z,8912.00
2018-11-04T09:43:27.435Z,9060.00
2018-11-04T09:44:27.426Z,9252.00
2018-11-04T09:45:27.476Z,9240.00
2018-11-04T09:46:27.427Z,9032.00
2018-11-04T09:47:27.553Z,8908.00
2018-11-04T09:48:27.442Z,8868.00
2018-11-04T09:49:27.370Z,8940.00
2018-11-04T09:50:27.351Z,9108.00
2018-11-04T09:51:27.343Z,9172.00
2018-11-04T09:52:27.414Z,9028.00
2018-11-04T09:53:27.358Z,8844.00
2018-11-04T09:54:27.302Z,8716.00
2018-11-04T09:55:27.295Z,8668.00
2018-11-04T09:56:27.399Z,8740.00
2018-11-04T09:57:27.276Z,8828.00
2018-11-04T09:58:27.312Z,8900.00
2018-11-04T09:59:27.279Z,8840.00
2018-11-04T10:00:27.237Z,8712.00
2018-11-04T10:01:27.371Z,8656.00
2018-11-04T10:02:27.277Z,8708.00
2018-11-04T10:03:27.218Z,8760.00
2018-11-04T10:04:27.395Z,8836.00
2018-11-04T10:05:27.223Z,9012.00
2018-11-04T10:06:27.194Z,9132.00
2018-11-04T10:07:27.164Z,9084.00
2018-11-04T10:08:27.152Z,9064.00
2018-11-04T10:09:27.138Z,9160.00
2018-11-04T10:10:27.179Z,9264.00
2018-11-04T10:11:27.117Z,9168.00
2018-11-04T10:12:27.112Z,9012.00
2018-11-04T10:13:27.164Z,9004.00
2018-11-04T10:14:27.084Z,9084.00
2018-11-04T10:15:27.095Z,9204.00
2018-11-04T10:16:27.270Z,9308.00
2018-11-04T10:17:27.129Z,9456.00
2018-11-04T10:18:27.192Z,9652.00
2018-11-04T10:19:27.103Z,9592.00
2018-11-04T10:20:27.273Z,9272.00
2018-11-04T10:21:27.057Z,9044.00
2018-11-04T10:22:27.074Z,8956.00
2018-11-04T10:23:26.984Z,8964.00
2018-11-04T10:24:26.989Z,9060.00
2018-11-04T10:25:26.975Z,9172.00
2018-11-04T10:26:26.954Z,9084.00
2018-11-04T10:27:26.946Z,8900.00
2018-11-04T10:28:27.162Z,8864.00
2018-11-04T10:29:26.916Z,9028.00
2018-11-04T10:30:27.023Z,9208.00
2018-11-04T10:31:26.898Z,9280.00
2018-11-04T10:32:26.919Z,9336.00
2018-11-04T10:33:26.876Z,9576.00
2018-11-04T10:34:26.916Z,9796.00
2018-11-04T10:35:26.868Z,9764.00
2018-11-04T10:36:26.841Z,9584.00
2018-11-04T10:37:26.887Z,9644.00
2018-11-04T10:38:26.820Z,9860.00
2018-11-04T10:39:26.804Z,10276.00
2018-11-04T10:40:26.858Z,10808.00
2018-11-04T10:41:26.788Z,11024.00
2018-11-04T10:42:26.859Z,11012.00
2018-11-04T10:43:26.762Z,11136.00
2018-11-04T10:44:26.749Z,11424.00
2018-11-04T10:45:26.739Z,11944.00
2018-11-04T10:46:26.773Z,12012.00
2018-11-04T10:47:26.738Z,11760.00
2018-11-04T10:48:26.711Z,11508.00
2018-11-04T10:49:26.737Z,11356.00
2018-11-04T10:50:26.684Z,11284.00
2018-11-04T10:51:26.674Z,11044.00
2018-11-04T10:52:26.720Z,10832.00
2018-11-04T10:53:26.658Z,10912.00
2018-11-04T10:54:26.647Z,11180.00
2018-11-04T10:55:26.635Z,11344.00
2018-11-04T10:56:26.618Z,11312.00
2018-11-04T10:57:26.635Z,11464.00
2018-11-04T10:58:26.684Z,11764.00
2018-11-04T10:59:26.599Z,11884.00
2018-11-04T11:00:26.571Z,11904.00
2018-11-04T11:01:26.565Z,11876.00
2018-11-04T11:02:26.556Z,12112.00
2018-11-04T11:03:26.538Z,12232.00
2018-11-04T11:04:26.634Z,12088.00
2018-11-04T11:05:26.517Z,12184.00
2018-11-04T11:06:26.505Z,12064.00
2018-11-04T11:07:26.532Z,11520.00
2018-11-04T11:08:26.481Z,11060.00
2018-11-04T11:09:26.478Z,10708.00
2018-11-04T11:10:26.552Z,10612.00
2018-11-04T11:11:26.454Z,10708.00
2018-11-04T11:12:26.439Z,10812.00
2018-11-04T11:13:26.469Z,11052.00
2018-11-04T11:14:26.422Z,10972.00
2018-11-04T11:15:26.746Z,10664.00
2018-11-04T11:16:26.435Z,10660.00
2018-11-04T11:17:26.384Z,11020.00
2018-11-04T11:18:26.389Z,11256.00
2018-11-04T11:19:26.359Z,11268.00
2018-11-04T11:20:27.153Z,11296.00
2018-11-04T11:21:26.336Z,11248.00
2018-11-04T11:22:26.398Z,11328.00
2018-11-04T11:23:26.365Z,11616.00
2018-11-04T11:24:26.306Z,11792.00
2018-11-04T11:25:26.303Z,11916.00
2018-11-04T11:26:26.462Z,12328.00
2018-11-04T11:27:26.270Z,12788.00
2018-11-04T11:28:26.346Z,12900.00
2018-11-04T11:29:26.247Z,12700.00
2018-11-04T11:30:26.238Z,12652.00
2018-11-04T11:31:26.227Z,12684.00
2018-11-04T11:32:26.219Z,12728.00
2018-11-04T11:33:26.205Z,13028.00
2018-11-04T11:34:26.236Z,13284.00
2018-11-04T11:35:26.193Z,13248.00
2018-11-04T11:36:26.175Z,13136.00
2018-11-04T11:37:26.248Z,13312.00
2018-11-04T11:38:26.167Z,13444.00
2018-11-04T11:39:26.136Z,13368.00
2018-11-04T11:40:26.168Z,13144.00
2018-11-04T11:41:26.136Z,13016.00
2018-11-04T11:42:26.118Z,12672.00
2018-11-04T11:43:26.095Z,12328.00
2018-11-04T11:44:26.084Z,12332.00
2018-11-04T11:45:26.080Z,12732.00
2018-11-04T11:46:26.113Z,13208.00
2018-11-04T11:47:26.199Z,12828.00
2018-11-04T11:48:26.092Z,11956.00
2018-11-04T11:49:26.031Z,11356.00
2018-11-04T11:50:26.015Z,11216.00
2018-11-04T11:51:26.012Z,11252.00
2018-11-04T11:52:26.486Z,10924.00
2018-11-04T11:53:25.988Z,10636.00
2018-11-04T11:54:25.990Z,10512.00
2018-11-04T11:55:25.966Z,10496.00
2018-11-04T11:56:25.979Z,10700.00
2018-11-04T11:57:25.937Z,10968.00
2018-11-04T11:58:26.094Z,11068.00
2018-11-04T11:59:26.061Z,11000.00
2018-11-04T12:00:25.907Z,11392.00
2018-11-04T12:01:25.913Z,11936.00
2018-11-04T12:02:26.037Z,12480.00
2018-11-04T12:03:25.872Z,12808.00
2018-11-04T12:04:25.920Z,12880.00
2018-11-04T12:05:25.849Z,12760.00
2018-11-04T12:06:25.891Z,12616.00
2018-11-04T12:07:25.828Z,12584.00
2018-11-04T12:08:25.820Z,12456.00
2018-11-04T12:09:25.823Z,12500.00
2018-11-04T12:10:25.883Z,12668.00
2018-11-04T12:11:25.804Z,12908.00
2018-11-04T12:12:25.773Z,13292.00
2018-11-04T12:13:25.773Z,13636.00
2018-11-04T12:14:25.759Z,13956.00
2018-11-04T12:15:25.741Z,14144.00
2018-11-04T12:16:25.781Z,14528.00
2018-11-04T12:17:25.721Z,15292.00
2018-11-04T12:18:25.739Z,15968.00
2018-11-04T12:19:25.698Z,15892.00
2018-11-04T12:20:25.695Z,15100.00
2018-11-04T12:21:25.674Z,14656.00
2018-11-04T12:22:25.702Z,14540.00
2018-11-04T12:23:25.711Z,14644.00
2018-11-04T12:24:25.690Z,14532.00
2018-11-04T12:25:25.636Z,14224.00
2018-11-04T12:26:25.631Z,13844.00
2018-11-04T12:27:25.637Z,13760.00
2018-11-04T12:28:25.637Z,13892.00
2018-11-04T12:29:25.606Z,14224.00
2018-11-04T12:30:25.584Z,14516.00
2018-11-04T12:31:25.569Z,14184.00
2018-11-04T12:32:25.558Z,13744.00
2018-11-04T12:33:25.569Z,13320.00
2018-11-04T12:34:25.591Z,12812.00
2018-11-04T12:35:25.646Z,12452.00
2018-11-04T12:36:25.520Z,12140.00
2018-11-04T12:37:25.514Z,11896.00